createdAt,value
2022-10-11T00:01:19.047Z,11.30
2022-10-11T00:03:45.613Z,11.23
2022-10-11T00:06:12.245Z,11.33
2022-10-11T00:08:38.810Z,11.90
2022-10-11T00:11:07.617Z,11.40
2022-10-11T00:13:34.723Z,11.47
2022-10-11T00:16:01.575Z,11.53
2022-10-11T00:18:28.251Z,10.87
2022-10-11T00:21:07.979Z,11.80
2022-10-11T00:23:35.226Z,11.77
2022-10-11T00:26:04.897Z,11.97
2022-10-11T00:28:31.906Z,11.77
2022-10-11T00:30:58.557Z,11.37
2022-10-11T00:33:25.225Z,12.00
2022-10-11T00:35:51.814Z,11.63
2022-10-11T00:38:18.514Z,12.23
2022-10-11T00:40:45.715Z,11.50
2022-10-11T00:43:17.240Z,11.60
2022-10-11T00:46:00.395Z,11.23
2022-10-11T00:48:40.392Z,11.53
2022-10-11T00:51:19.489Z,11.67
2022-10-11T00:53:47.912Z,11.67
2022-10-11T00:56:22.470Z,12.20
2022-10-11T00:58:49.809Z,12.00
2022-10-11T01:01:16.449Z,11.83
2022-10-11T01:03:44.293Z,12.20
2022-10-11T01:06:10.971Z,11.97
2022-10-11T01:08:38.185Z,11.70
2022-10-11T01:11:05.267Z,12.20
2022-10-11T01:13:39.093Z,11.97
2022-10-11T01:16:17.917Z,11.67
2022-10-11T01:18:44.440Z,12.03
2022-10-11T01:21:10.967Z,11.20
2022-10-11T01:24:16.209Z,11.53
2022-10-11T01:26:51.798Z,11.17
2022-10-11T01:29:55.914Z,11.63
2022-10-11T01:32:28.641Z,10.87
2022-10-11T01:35:24.143Z,10.73
2022-10-11T01:38:01.889Z,10.73
2022-10-11T01:40:35.217Z,10.93
2022-10-11T01:43:02.081Z,11.37
2022-10-11T01:45:29.090Z,11.13
2022-10-11T01:48:03.205Z,11.13
2022-10-11T01:50:40.929Z,10.73
2022-10-11T01:53:21.522Z,11.53
2022-10-11T01:55:57.365Z,10.90
2022-10-11T01:58:52.946Z,11.23
2022-10-11T02:01:40.957Z,11.33
2022-10-11T02:04:17.077Z,11.43
2022-10-11T02:07:15.107Z,11.63
2022-10-11T02:09:53.729Z,10.93
2022-10-11T02:12:28.049Z,11.33
2022-10-11T02:14:56.493Z,11.43
2022-10-11T02:17:27.615Z,11.60
2022-10-11T02:19:57.209Z,11.97
2022-10-11T02:22:28.151Z,11.67
2022-10-11T02:24:56.909Z,10.80
2022-10-11T02:27:26.793Z,10.03
2022-10-11T02:29:54.749Z,11.07
2022-10-11T02:32:23.692Z,11.13
2022-10-11T02:34:58.446Z,11.23
2022-10-11T02:37:32.926Z,11.00
2022-10-11T02:40:03.989Z,10.87
2022-10-11T02:42:34.013Z,11.40
2022-10-11T02:45:04.733Z,11.23
2022-10-11T02:47:32.129Z,11.47
2022-10-11T02:49:59.757Z,11.83
2022-10-11T02:52:26.768Z,11.80
2022-10-11T02:54:53.337Z,11.43
2022-10-11T02:57:19.909Z,10.97
2022-10-11T02:59:46.434Z,10.40
2022-10-11T03:02:13.126Z,11.67
2022-10-11T03:04:39.653Z,11.63
2022-10-11T03:07:06.196Z,10.70
2022-10-11T03:09:32.751Z,10.63
2022-10-11T03:11:59.282Z,10.97
2022-10-11T03:14:26.911Z,11.23
2022-10-11T03:16:53.466Z,11.53
2022-10-11T03:19:20.037Z,11.57
2022-10-11T03:21:46.808Z,11.13
2022-10-11T03:24:13.433Z,11.90
2022-10-11T03:26:39.997Z,11.17
2022-10-11T03:29:06.518Z,10.57
2022-10-11T03:31:33.053Z,11.43
2022-10-11T03:33:59.590Z,11.27
2022-10-11T03:36:26.104Z,11.07
2022-10-11T03:38:52.710Z,11.57
2022-10-11T03:41:19.242Z,11.40
2022-10-11T03:43:45.780Z,12.37
2022-10-11T03:46:12.406Z,10.90
2022-10-11T03:48:38.991Z,11.70
2022-10-11T03:51:05.669Z,11.80
2022-10-11T03:53:32.209Z,11.07
2022-10-11T03:55:58.726Z,12.13
2022-10-11T03:58:25.315Z,11.40
2022-10-11T04:00:52.769Z,11.37
2022-10-11T04:03:19.403Z,11.20
2022-10-11T04:05:45.926Z,11.70
2022-10-11T04:08:12.590Z,11.47
2022-10-11T04:10:40.074Z,11.07
2022-10-11T04:13:07.387Z,11.87
2022-10-11T04:15:33.991Z,11.70
2022-10-11T04:18:00.563Z,12.07
2022-10-11T04:20:27.116Z,11.40
2022-10-11T04:22:53.657Z,11.37
2022-10-11T04:25:20.206Z,11.57
2022-10-11T04:27:46.739Z,11.80
2022-10-11T04:30:13.623Z,11.23
2022-10-11T04:32:40.181Z,15.03
2022-10-11T04:35:06.962Z,13.23
2022-10-11T04:37:33.490Z,12.47
2022-10-11T04:40:00.132Z,13.27
2022-10-11T04:42:26.678Z,13.60
2022-10-11T04:44:53.197Z,14.47
2022-10-11T04:47:19.736Z,15.00
2022-10-11T04:49:46.258Z,14.83
2022-10-11T04:52:12.848Z,13.50
2022-10-11T04:54:39.438Z,14.47
2022-10-11T04:57:06.072Z,13.57
2022-10-11T04:59:32.634Z,13.17
2022-10-11T05:01:59.204Z,13.60
2022-10-11T05:04:25.794Z,12.83
2022-10-11T05:06:52.369Z,12.23
2022-10-11T05:09:19.174Z,13.47
2022-10-11T05:11:45.734Z,13.03
2022-10-11T05:14:12.254Z,13.13
2022-10-11T05:16:38.798Z,13.57
2022-10-11T05:19:05.400Z,13.63
2022-10-11T05:21:32.070Z,13.20
2022-10-11T05:23:58.643Z,13.00
2022-10-11T05:26:27.392Z,13.97
2022-10-11T05:28:55.109Z,13.63
2022-10-11T05:31:21.846Z,13.03
2022-10-11T05:33:48.482Z,13.37
2022-10-11T05:36:15.216Z,12.43
2022-10-11T05:38:41.833Z,13.07
2022-10-11T05:41:11.665Z,12.93
2022-10-11T05:43:38.179Z,13.07
2022-10-11T05:46:05.941Z,12.50
2022-10-11T05:48:32.719Z,13.30
2022-10-11T05:51:05.237Z,13.90
2022-10-11T05:53:32.490Z,13.40
2022-10-11T05:55:59.652Z,13.67
2022-10-11T05:58:26.472Z,14.30
2022-10-11T06:00:53.388Z,14.30
2022-10-11T06:03:21.119Z,14.10
2022-10-11T06:05:47.851Z,13.97
2022-10-11T06:08:14.916Z,14.77
2022-10-11T06:10:41.872Z,14.07
2022-10-11T06:13:09.633Z,13.97
2022-10-11T06:15:38.986Z,14.43
2022-10-11T06:18:05.622Z,13.87
2022-10-11T06:20:32.280Z,13.60
2022-10-11T06:22:59.190Z,14.17
2022-10-11T06:25:25.764Z,14.60
2022-10-11T06:27:52.350Z,14.50
2022-10-11T06:30:19.018Z,14.13
2022-10-11T06:32:45.610Z,15.03
2022-10-11T06:35:12.306Z,14.27
2022-10-11T06:37:38.890Z,13.53
2022-10-11T06:40:06.007Z,13.90
2022-10-11T06:42:32.623Z,12.50
2022-10-11T06:44:59.253Z,12.37
2022-10-11T06:47:25.914Z,13.00
2022-10-11T06:49:52.580Z,12.60
2022-10-11T06:52:19.399Z,12.43
2022-10-11T06:54:46.009Z,13.23
2022-10-11T06:57:12.698Z,13.87
2022-10-11T06:59:39.372Z,12.80
2022-10-11T07:02:06.933Z,12.80
2022-10-11T07:04:33.986Z,12.27
2022-10-11T07:07:00.883Z,12.20
2022-10-11T07:09:27.515Z,12.07
2022-10-11T07:11:54.078Z,12.03
2022-10-11T07:14:20.694Z,11.67
2022-10-11T07:16:47.302Z,11.90
2022-10-11T07:19:13.958Z,10.97
2022-10-11T07:21:40.645Z,11.57
2022-10-11T07:24:07.513Z,12.00
2022-10-11T07:26:38.603Z,10.83
2022-10-11T07:29:07.614Z,11.60
2022-10-11T07:31:34.207Z,11.50
2022-10-11T07:34:00.931Z,11.30
2022-10-11T07:36:27.643Z,11.00
2022-10-11T07:38:55.340Z,12.10
2022-10-11T07:41:22.022Z,12.23
2022-10-11T07:43:49.791Z,11.70
2022-10-11T07:46:17.406Z,11.93
2022-10-11T07:48:44.060Z,11.87
2022-10-11T07:51:12.104Z,11.37
2022-10-11T07:53:43.144Z,11.40
2022-10-11T07:56:12.541Z,11.43
2022-10-11T07:58:40.224Z,10.90
2022-10-11T08:01:07.499Z,12.03
2022-10-11T08:03:34.146Z,11.60
2022-10-11T08:06:06.158Z,11.57
2022-10-11T08:08:33.134Z,12.07
2022-10-11T08:10:59.851Z,10.53
2022-10-11T08:13:27.125Z,11.03
2022-10-11T08:15:53.984Z,11.40
2022-10-11T08:18:20.677Z,11.40
2022-10-11T08:20:47.446Z,11.73
2022-10-11T08:23:14.101Z,11.93
2022-10-11T08:25:44.578Z,11.67
2022-10-11T08:28:16.597Z,11.13
2022-10-11T08:30:50.756Z,11.60
2022-10-11T08:33:18.510Z,12.00
2022-10-11T08:35:45.186Z,11.23
2022-10-11T08:38:11.930Z,11.47
2022-10-11T08:40:38.932Z,12.03
2022-10-11T08:43:32.126Z,11.33
2022-10-11T08:46:01.173Z,11.50
2022-10-11T08:48:46.359Z,11.00
2022-10-11T08:51:30.670Z,11.80
2022-10-11T08:54:38.833Z,11.07
2022-10-11T08:57:06.550Z,11.07
2022-10-11T08:59:41.766Z,10.17
2022-10-11T09:02:35.137Z,9.87
2022-10-11T09:05:18.110Z,10.43
2022-10-11T09:08:06.194Z,10.73
2022-10-11T09:11:05.589Z,10.77
2022-10-11T09:13:53.430Z,10.70
2022-10-11T09:16:35.023Z,10.80
2022-10-11T09:19:16.813Z,10.87
2022-10-11T09:21:51.542Z,10.53
2022-10-11T09:24:47.365Z,11.70
2022-10-11T09:27:29.130Z,10.43
2022-10-11T09:30:17.261Z,10.80
2022-10-11T09:32:46.792Z,10.73
2022-10-11T09:35:22.511Z,10.90
2022-10-11T09:38:05.500Z,9.47
2022-10-11T09:40:43.446Z,10.87
2022-10-11T09:43:10.580Z,8.93
2022-10-11T09:45:37.342Z,9.00
2022-10-11T09:48:05.899Z,9.63
2022-10-11T09:50:32.990Z,9.00
2022-10-11T09:53:03.573Z,8.93
2022-10-11T09:55:52.494Z,9.33
2022-10-11T09:58:35.983Z,9.90
2022-10-11T10:01:07.875Z,9.87
2022-10-11T10:03:40.625Z,10.03
2022-10-11T10:06:25.296Z,9.77
2022-10-11T10:08:52.187Z,9.30
2022-10-11T10:11:19.412Z,8.57
2022-10-11T10:13:47.155Z,8.97
2022-10-11T10:16:31.574Z,9.03
2022-10-11T10:19:03.522Z,8.10
2022-10-11T10:21:36.654Z,8.20
2022-10-11T10:24:12.012Z,7.90
2022-10-11T10:26:39.989Z,8.07
2022-10-11T10:29:09.532Z,6.50
2022-10-11T10:31:55.273Z,5.83
2022-10-11T10:34:28.772Z,5.90
2022-10-11T10:37:11.822Z,7.07
2022-10-11T10:39:57.288Z,5.60
2022-10-11T10:42:23.963Z,5.87
2022-10-11T10:44:53.356Z,6.80
2022-10-11T10:47:28.714Z,6.60
2022-10-11T10:50:08.404Z,5.80
2022-10-11T10:52:48.713Z,5.67
2022-10-11T10:55:30.508Z,5.27
2022-10-11T10:58:22.032Z,5.20
2022-10-11T11:00:51.022Z,4.70
2022-10-11T11:03:42.672Z,4.60
2022-10-11T11:06:21.788Z,4.67
2022-10-11T11:09:00.164Z,4.70
2022-10-11T11:11:33.502Z,4.80
2022-10-11T11:14:15.820Z,4.10
2022-10-11T11:16:57.912Z,4.50
2022-10-11T11:19:58.370Z,4.00
2022-10-11T11:22:50.002Z,3.87
2022-10-11T11:25:44.980Z,3.40
2022-10-11T11:28:30.314Z,3.43
2022-10-11T11:31:26.486Z,3.50
2022-10-11T11:34:10.731Z,4.30
2022-10-11T11:37:06.931Z,4.03
2022-10-11T11:40:07.134Z,4.03
2022-10-11T11:42:40.947Z,3.53
2022-10-11T11:45:28.102Z,3.47
2022-10-11T11:48:07.066Z,4.50
2022-10-11T11:50:40.011Z,3.90
2022-10-11T11:53:13.790Z,3.33
2022-10-11T11:55:49.391Z,3.17
2022-10-11T11:58:31.088Z,3.10
2022-10-11T12:01:21.532Z,3.50
2022-10-11T12:03:50.756Z,3.30
2022-10-11T12:06:21.122Z,2.93
2022-10-11T12:09:15.454Z,2.67
2022-10-11T12:12:00.031Z,3.00
2022-10-11T12:14:35.657Z,2.80
2022-10-11T12:17:23.755Z,2.93
2022-10-11T12:20:08.624Z,3.23
2022-10-11T12:22:35.183Z,3.03
2022-10-11T12:25:22.015Z,2.70
2022-10-11T12:27:53.946Z,2.67
2022-10-11T12:30:48.175Z,2.30
2022-10-11T12:33:24.550Z,2.90
2022-10-11T12:35:54.245Z,2.97
2022-10-11T12:38:31.390Z,2.80
2022-10-11T12:41:08.637Z,3.20
2022-10-11T12:44:07.653Z,3.37
2022-10-11T12:46:41.485Z,3.40
2022-10-11T12:49:23.993Z,3.30
2022-10-11T12:52:06.977Z,3.07
2022-10-11T12:55:04.648Z,3.43
2022-10-11T12:58:01.256Z,3.70
2022-10-11T13:00:31.121Z,3.33
2022-10-11T13:02:59.743Z,3.40
2022-10-11T13:05:27.704Z,3.17
2022-10-11T13:07:56.034Z,3.53
2022-10-11T13:10:36.917Z,3.20
2022-10-11T13:13:09.978Z,3.40
2022-10-11T13:15:36.565Z,3.70
2022-10-11T13:18:03.183Z,3.63
2022-10-11T13:20:32.220Z,3.97
2022-10-11T13:22:58.910Z,3.50
2022-10-11T13:25:29.407Z,3.57
2022-10-11T13:27:58.518Z,3.60
2022-10-11T13:30:28.873Z,3.80
2022-10-11T13:32:55.632Z,3.90
2022-10-11T13:35:38.388Z,3.53
2022-10-11T13:38:08.133Z,3.20
2022-10-11T13:40:35.709Z,3.33
2022-10-11T13:43:02.583Z,2.97
2022-10-11T13:45:32.268Z,3.13
2022-10-11T13:47:58.963Z,3.60
2022-10-11T13:50:32.238Z,3.53
2022-10-11T13:53:02.287Z,4.30
2022-10-11T13:55:47.141Z,3.90
2022-10-11T13:58:20.699Z,3.80
2022-10-11T14:00:56.481Z,3.30
2022-10-11T14:03:24.820Z,3.93
2022-10-11T14:05:59.027Z,3.40
2022-10-11T14:08:25.712Z,4.00
2022-10-11T14:10:56.763Z,4.07
2022-10-11T14:13:25.823Z,3.67
2022-10-11T14:16:04.432Z,3.90
2022-10-11T14:18:36.905Z,4.00
2022-10-11T14:21:46.997Z,3.70
2022-10-11T14:24:14.593Z,3.80
2022-10-11T14:26:52.251Z,3.90
2022-10-11T14:29:35.089Z,3.57
2022-10-11T14:32:04.733Z,3.60
2022-10-11T14:34:31.589Z,3.90
2022-10-11T14:36:58.206Z,3.53
2022-10-11T14:39:26.297Z,3.97
2022-10-11T14:41:53.269Z,3.53
2022-10-11T14:44:21.097Z,3.70
2022-10-11T14:46:48.901Z,3.70
2022-10-11T14:49:25.250Z,3.90
2022-10-11T14:51:53.054Z,3.80
2022-10-11T14:54:22.645Z,4.20
2022-10-11T14:56:53.881Z,3.93
2022-10-11T14:59:22.602Z,3.57
2022-10-11T15:01:54.016Z,3.97
2022-10-11T15:04:21.729Z,3.70
2022-10-11T15:06:48.888Z,3.80
2022-10-11T15:09:17.078Z,3.73
2022-10-11T15:11:43.804Z,4.40
2022-10-11T15:14:10.464Z,4.73
2022-10-11T15:16:37.086Z,4.60
2022-10-11T15:19:03.908Z,4.23
2022-10-11T15:21:30.645Z,4.70
2022-10-11T15:23:57.218Z,3.97
2022-10-11T15:26:28.712Z,4.47
2022-10-11T15:28:56.989Z,4.43
2022-10-11T15:31:23.801Z,4.47
2022-10-11T15:33:50.455Z,4.40
2022-10-11T15:36:19.433Z,4.30
2022-10-11T15:38:46.479Z,4.20
2022-10-11T15:41:15.613Z,4.33
2022-10-11T15:43:43.809Z,4.87
2022-10-11T15:46:17.429Z,5.00
2022-10-11T15:48:45.067Z,4.47
2022-10-11T15:51:11.713Z,4.70
2022-10-11T15:53:38.353Z,4.53
2022-10-11T15:56:07.810Z,4.77
2022-10-11T15:58:36.878Z,4.50
2022-10-11T16:01:06.799Z,4.50
2022-10-11T16:03:34.089Z,4.50
2022-10-11T16:06:04.816Z,4.53
2022-10-11T16:08:33.659Z,4.60
2022-10-11T16:11:00.823Z,4.60
2022-10-11T16:13:27.446Z,4.50
2022-10-11T16:15:54.089Z,3.97
2022-10-11T16:18:22.158Z,4.60
2022-10-11T16:20:51.346Z,4.50
2022-10-11T16:23:19.814Z,5.00
2022-10-11T16:25:46.473Z,4.40
2022-10-11T16:28:13.119Z,4.50
2022-10-11T16:30:43.135Z,4.70
2022-10-11T16:33:09.993Z,4.60
2022-10-11T16:35:40.511Z,4.73
2022-10-11T16:38:07.093Z,4.23
2022-10-11T16:40:35.740Z,7.50
2022-10-11T16:43:07.349Z,10.23
2022-10-11T16:45:35.032Z,10.37
2022-10-11T16:48:02.018Z,10.20
2022-10-11T16:50:29.107Z,9.40
2022-10-11T16:52:55.898Z,9.33
2022-10-11T16:55:23.085Z,7.10
2022-10-11T16:57:49.634Z,6.57
2022-10-11T17:00:16.563Z,7.20
2022-10-11T17:02:43.129Z,7.40
2022-10-11T17:05:09.656Z,7.73
2022-10-11T17:07:36.270Z,5.80
2022-10-11T17:10:02.915Z,7.23
2022-10-11T17:12:29.771Z,10.70
2022-10-11T17:14:56.546Z,8.63
2022-10-11T17:17:23.253Z,8.20
2022-10-11T17:19:50.148Z,8.87
2022-10-11T17:22:19.266Z,9.03
2022-10-11T17:24:46.216Z,7.70
2022-10-11T17:27:13.142Z,6.70
2022-10-11T17:29:39.771Z,5.67
2022-10-11T17:32:06.728Z,5.40
2022-10-11T17:34:33.647Z,6.00
2022-10-11T17:37:00.205Z,5.60
2022-10-11T17:39:26.811Z,5.77
2022-10-11T17:41:53.417Z,5.10
2022-10-11T17:44:21.621Z,5.40
2022-10-11T17:46:48.309Z,5.40
2022-10-11T17:49:15.035Z,5.43
2022-10-11T17:51:42.003Z,5.23
2022-10-11T17:54:12.790Z,6.70
2022-10-11T17:56:40.949Z,7.30
2022-10-11T17:59:08.820Z,7.27
2022-10-11T18:01:36.114Z,7.23
2022-10-11T18:04:04.272Z,6.73
2022-10-11T18:06:33.067Z,6.00
2022-10-11T18:09:01.265Z,6.20
2022-10-11T18:11:27.935Z,6.03
2022-10-11T18:13:54.592Z,5.87
2022-10-11T18:16:23.263Z,5.47
2022-10-11T18:18:50.216Z,5.33
2022-10-11T18:21:18.703Z,5.67
2022-10-11T18:23:45.620Z,5.10
2022-10-11T18:26:20.166Z,5.40
2022-10-11T18:28:47.861Z,5.10
2022-10-11T18:31:17.475Z,5.40
2022-10-11T18:33:45.979Z,5.50
2022-10-11T18:36:14.521Z,5.50
2022-10-11T18:38:46.126Z,5.60
2022-10-11T18:41:14.647Z,5.87
2022-10-11T18:43:41.361Z,5.33
2022-10-11T18:46:10.621Z,5.50
2022-10-11T18:48:43.113Z,5.57
2022-10-11T18:51:12.722Z,6.00
2022-10-11T18:53:39.307Z,6.40
2022-10-11T18:56:08.010Z,6.60
2022-10-11T18:58:35.982Z,7.43
2022-10-11T19:01:20.545Z,7.77
2022-10-11T19:03:49.435Z,7.47
2022-10-11T19:06:18.589Z,9.67
2022-10-11T19:08:55.942Z,10.37
2022-10-11T19:11:25.212Z,8.57
2022-10-11T19:13:59.818Z,8.40
2022-10-11T19:16:27.990Z,7.93
2022-10-11T19:18:54.565Z,7.97
2022-10-11T19:21:21.719Z,7.20
2022-10-11T19:23:49.220Z,6.50
2022-10-11T19:26:24.305Z,6.63
2022-10-11T19:29:05.263Z,7.60
2022-10-11T19:31:33.241Z,6.23
2022-10-11T19:33:59.947Z,6.70
2022-10-11T19:36:28.401Z,6.87
2022-10-11T19:38:56.887Z,7.30
2022-10-11T19:41:24.555Z,8.17
2022-10-11T19:43:51.587Z,6.03
2022-10-11T19:46:37.820Z,7.00
2022-10-11T19:49:08.107Z,7.40
2022-10-11T19:51:35.195Z,7.20
2022-10-11T19:54:04.895Z,7.57
2022-10-11T19:56:32.646Z,8.13
2022-10-11T19:58:59.878Z,8.00
2022-10-11T20:01:29.192Z,7.43
2022-10-11T20:03:57.826Z,7.77
2022-10-11T20:06:25.830Z,7.33
2022-10-11T20:09:10.398Z,7.53
2022-10-11T20:11:39.192Z,9.98
2022-10-11T20:14:06.103Z,10.50
2022-10-11T20:16:32.726Z,10.80
2022-10-11T20:18:59.412Z,12.53
2022-10-11T20:21:27.939Z,15.53
2022-10-11T20:23:58.722Z,26.10
2022-10-11T20:26:26.802Z,30.90
2022-10-11T20:28:56.028Z,31.97
2022-10-11T20:31:28.542Z,24.50
2022-10-11T20:33:57.347Z,30.67
2022-10-11T20:36:26.013Z,33.13
2022-10-11T20:38:52.682Z,33.33
2022-10-11T20:41:22.224Z,35.03
2022-10-11T20:43:52.086Z,34.33
2022-10-11T20:46:21.390Z,33.47
2022-10-11T20:48:58.894Z,27.13
2022-10-11T20:51:28.822Z,23.10
2022-10-11T20:53:56.393Z,16.97
2022-10-11T20:56:23.293Z,14.47
2022-10-11T20:58:54.254Z,16.80
2022-10-11T21:01:23.262Z,16.97
2022-10-11T21:03:50.447Z,14.70
2022-10-11T21:06:17.026Z,13.03
2022-10-11T21:08:43.654Z,10.47
2022-10-11T21:11:10.985Z,12.70
2022-10-11T21:13:38.191Z,11.40
2022-10-11T21:16:11.183Z,11.37
2022-10-11T21:18:38.135Z,11.07
2022-10-11T21:21:06.777Z,11.87
2022-10-11T21:23:33.648Z,11.00
2022-10-11T21:26:04.930Z,10.90
2022-10-11T21:28:31.719Z,10.33
2022-10-11T21:31:05.112Z,10.23
2022-10-11T21:33:31.806Z,9.27
2022-10-11T21:35:58.407Z,11.30
2022-10-11T21:38:25.013Z,10.33
2022-10-11T21:40:51.898Z,10.43
2022-10-11T21:43:18.516Z,10.63
2022-10-11T21:45:45.866Z,10.93
2022-10-11T21:48:12.573Z,10.70
2022-10-11T21:50:39.332Z,12.17
2022-10-11T21:53:05.982Z,11.80
2022-10-11T21:55:32.561Z,12.03
2022-10-11T21:57:59.415Z,11.13
2022-10-11T22:00:25.958Z,9.33
2022-10-11T22:02:52.615Z,9.97
2022-10-11T22:05:19.221Z,10.03
2022-10-11T22:07:45.786Z,9.90
2022-10-11T22:10:12.393Z,9.83
2022-10-11T22:12:38.939Z,9.77
2022-10-11T22:15:06.076Z,9.83
2022-10-11T22:17:32.665Z,9.93
2022-10-11T22:19:59.250Z,10.80
2022-10-11T22:22:26.228Z,10.33
2022-10-11T22:24:52.797Z,10.93
2022-10-11T22:27:19.436Z,11.30
2022-10-11T22:29:45.995Z,11.13
2022-10-11T22:32:12.582Z,11.93
2022-10-11T22:34:39.142Z,12.00
2022-10-11T22:37:05.689Z,13.03
2022-10-11T22:39:32.245Z,13.83
2022-10-11T22:41:59.122Z,13.70
2022-10-11T22:44:25.701Z,13.60
2022-10-11T22:46:52.272Z,13.43
2022-10-11T22:49:18.850Z,13.80
2022-10-11T22:51:45.473Z,13.33
2022-10-11T22:54:12.155Z,13.53
2022-10-11T22:56:38.747Z,14.80
2022-10-11T22:59:05.383Z,13.80
2022-10-11T23:01:32.140Z,13.73
2022-10-11T23:03:58.768Z,13.90
2022-10-11T23:06:25.391Z,13.40
2022-10-11T23:08:51.951Z,13.67
2022-10-11T23:11:18.542Z,13.50
2022-10-11T23:13:45.081Z,13.67
2022-10-11T23:16:13.075Z,13.37
2022-10-11T23:18:40.045Z,13.20
2022-10-11T23:21:07.488Z,12.87
2022-10-11T23:23:34.244Z,13.23
2022-10-11T23:26:05.460Z,12.37
2022-10-11T23:28:32.202Z,12.87
2022-10-11T23:30:58.872Z,13.47
2022-10-11T23:33:25.542Z,12.87
2022-10-11T23:35:52.137Z,13.33
2022-10-11T23:38:18.711Z,13.73
2022-10-11T23:40:45.253Z,12.73
2022-10-11T23:43:11.800Z,13.23
2022-10-11T23:45:38.651Z,12.87
2022-10-11T23:48:05.205Z,12.47
2022-10-11T23:50:31.714Z,12.90
2022-10-11T23:52:58.269Z,12.77
2022-10-11T23:55:24.861Z,12.27
2022-10-11T23:57:51.457Z,12.40
